Beaufort, SC

12:37 AM EST on December 28, 2014 (GMT -0500)
Colleton River Plantation Club | Change Station
CLOSE
Current Station
Personal Weather Station
Location: Bluffton, SC
Elevation: 56 ft
Nearby Weather Stations

Elev 56 ft 32.30 °N, 80.79 °W | Updated 2 minutes ago

Partly Cloudy
Partly Cloudy
50.9 °F
Feels Like 50.9 °F
N
0.0
Wind Variable Wind from West
Gusts 3.0 mph

Today
High -- | Low -- °F
--% Chance of Precip.
Yesterday
High -- | Low -- °F
Precip. -- in
7:23 AM 5:25 PM
Waxing Crescent, 44% visible
Pressure 30.22 in
Visibility 10.0 miles
Clouds Clear
Dew Point 51 °F
Humidity 99%
Rainfall 0.00 in
Snow Depth Not available.
UV 0 out of 12
Pollen 1.30 out of 12
Air Quality Not available.
Flu Activity Not available.
METAR KNBC 280456Z AUTO 00000KT 10SM CLR 11/09 A3022 RMK AO2 SLP232 T01060089 401940061

More Conditions Fewer Conditions

Pressure 30.22 in
Visibility 10.0 miles
Clouds Clear
Dew Point 51 °F
Humidity 99%
Rainfall 0.00 in
Snow Depth Not available.
UV 0 out of 12
Pollen 1.30 out of 12
Air Quality Not available.
Flu Activity Not available.
METAR KNBC 280456Z AUTO 00000KT 10SM CLR 11/09 A3022 RMK AO2 SLP232 T01060089 401940061

More Conditions Fewer Conditions

10-Day Weather Forecast

Almanac

Astronomy

Dec. 28, 2014 Rise Set
Actual Time
Civil Twilight
Nautical Twilight
Astronomical Twilight
Moon
Length of Visible Light
Length of Day
Tomorrow will be .
, % of the Moon is Illuminated

Today's Extremes

State Highs State Lows

Community

WunderPhotos

Upload Photos

1,781,208 photos uploaded!

WunderBlogs® & News

Nearby

Air Quality

  Air Quality AQ Index Pollutant
Not available.

Snow Depth

Station Depth Elevation

Earthquake Activity

City Distance Mag. Time & Date
Minimum magnitude displayed is 2.5.

Coastal Water Temperatures

Place Temperature

Nearby Weather Stations